Airfield :
LOGIN :

Register | Disclaimer

   EN    FR    IT 

 










Legend :    VFR   Marginal VFR   IFR   Intensive IFR   Very Intensive IFR
Visi :
Ceiling :
>= 8 km
>= 3000ft
5 to 8 km
1000 to 3000 ft
1500m to 5 km
500 to 1000 ft
800 to 1500m
200 to 500 ft
< 800m
< 200 ft
Symbols :   Thunderstorms  Fog  Heavy snow  Heavy precipitations  Wind > 20 kt
SIGMETs :     Misc.  Thunderstorms  Icing  Turbulence  Mountain Waves  Volcanic Ashes






- Airport Elevation : 364 ft
- IATA code : FRA


EDDF - Frankfurt Int.

CURRENT METAR :
  • 270820Z 20010KT 9999 FEW013 BKN017 BKN024 04/01 Q1005 NOSIG

EXPIRED METARs :
  • 270750Z 20011KT 9999 FEW023 SCT031 04/01 Q1006 NOSIG
  • 270720Z 19011KT 9999 FEW023 BKN034 04/00 Q1006 NOSIG
  • 270650Z 20014KT 9999 FEW023 BKN034 04/00 Q1006 NOSIG
  • 270620Z 20009KT 9999 FEW021 BKN034 03/01 Q1006 NOSIG
  • 270550Z 21010KT 9999 FEW021 BKN032 03/01 Q1007 NOSIG

TAF AMD TAF EDDF
Valid from the 27 at 08:00 until the 28 at 12:00 UTC


270820Z 2708/2812 20009KT 9999 SCT013 BKN020
BECMG 2710/2713 14009KT 4000 -RASN BKN012
TEMPO 2713/2717 2500 SNRA OVC008
BECMG 2714/2716 05009KT
BECMG 2716/2719 35010KT
TEMPO 2717/2720 1200 SN OVC004
BECMG 2719/2721 29010KT
BECMG 2800/2803 9999 SCT012
BECMG 2803/2806 23009KT



MET'MAP, your aeronautical weather chart ! - Copyright ORBIFLY December 2007 - Disclaimer

ORBIFLY MET'MAP TEAM :

Programming & Development : Alexandra Zaïnal
Concept & original design : Baudouin d'Aumeries
Assistance for programming : Marc-Olivier Méhu
Technical & hardware support : Manuel Goepfert

Contact : metmap@orbifly.com




SOURCES & CREDITS :

   NOAA